This is the latest recevied weather packets stored in our database for station/object KD2RHT-13. If no packets are shown the sender has not sent any weather packets the latest 10 day(s).
| Time | Temp. | Humidity | Pressure | Rain* | Wind** | Luminosity | Snow |
|---|---|---|---|---|---|---|---|
| 1777879572 | 10.56° C | 68% | 1010 hPa | 0 mm | - | 0 W/m² | - |
| 1777879268 | 10.56° C | 67% | 1010 hPa | 0 mm | - | 0 W/m² | - |
| 1777878966 | 10.56° C | 68% | 1010 hPa | 0 mm | - | 0 W/m² | - |
| 1777878662 | 10.56° C | 68% | 1010 hPa | 0 mm | - | 0 W/m² | - |
| 1777878360 | 10.56° C | 69% | 1010 hPa | 0 mm | - | 0 W/m² | - |
| 1777878055 | 10° C | 70% | 1010 hPa | 0 mm | - | 0 W/m² | - |
| 1777877752 | 10° C | 73% | 1010 hPa | 0 mm | - | 0 W/m² | - |
| 1777877449 | 9.44° C | 74% | 1010 hPa | 0 mm | - | 0 W/m² | - |
| 1777877146 | 8.33° C | 83% | 1010 hPa | 0 mm | - | 0 W/m² | - |
| 1777876843 | 7.78° C | 93% | 1010 hPa | 0 mm | - | 0 W/m² | - |
| 1777876541 | 7.78° C | 95% | 1010.4 hPa | 0 mm | - | 0 W/m² | - |
| 1777876238 | 7.78° C | 96% | 1010 hPa | 0 mm | - | 0 W/m² | - |
| 1777875934 | 8.33° C | 96% | 1010 hPa | 0 mm | - | 0 W/m² | - |
| 1777875630 | 8.33° C | 97% | 1010 hPa | 0 mm | - | 0 W/m² | - |
| 1777875327 | 8.89° C | 96% | 1010 hPa | 0 mm | - | 0 W/m² | - |
| 1777875024 | 8.89° C | 96% | 1010.4 hPa | 0 mm | - | 0 W/m² | - |
| 1777874720 | 8.89° C | 96% | 1010.4 hPa | 0 mm | - | 0 W/m² | - |
| 1777874416 | 8.89° C | 96% | 1010.4 hPa | 0 mm | - | 0 W/m² | - |
| 1777874114 | 8.89° C | 96% | 1010.4 hPa | 0 mm | - | 0 W/m² | - |
| 1777873812 | 8.89° C | 96% | 1010.4 hPa | 0 mm | - | 0 W/m² | - |
| 1777873508 | 8.89° C | 95% | 1010.4 hPa | 0 mm | - | 0 W/m² | - |
| 1777873205 | 8.89° C | 95% | 1010.4 hPa | 0 mm | - | 0 W/m² | - |
| 1777872902 | 8.89° C | 95% | 1010.4 hPa | 0 mm | - | 0 W/m² | - |
| 1777872600 | 8.89° C | 95% | 1010.4 hPa | 0 mm | - | 0 W/m² | - |
| 1777872297 | 8.89° C | 95% | 1010.4 hPa | 0 mm | - | 0 W/m² | - |
* Rain latest hour (hover to see other rain measurements)
** Current wind speed in m/s (hover to see current wind gust speed)